This is the latest recevied weather packets stored in our database for station/object W6KRP-12. If no packets are shown the sender has not sent any weather packets the latest 10 day(s).
| Time | Temp. | Humidity | Pressure | Rain* | Wind** | Luminosity | Snow |
|---|---|---|---|---|---|---|---|
| 1778020207 | 25° C | 52% | 1013.7 hPa | 0 mm | - | - | - |
| 1778019607 | 25° C | 51% | 1013.6 hPa | 0 mm | - | - | - |
| 1778019006 | 25° C | 51% | 1013.5 hPa | 0 mm | - | - | - |
| 1778018406 | 25° C | 51% | 1013.6 hPa | 0 mm | - | - | - |
| 1778011206 | 28.33° C | 43% | 1013.8 hPa | 0 mm | - | - | - |
| 1778006406 | 30° C | 41% | 1014.8 hPa | 0 mm | - | - | - |
| 1778001606 | 26.11° C | 49% | 1015.2 hPa | 0 mm | - | - | - |
| 1777995606 | 24.44° C | 54% | 1016.1 hPa | 0 mm | - | - | - |
| 1777993205 | 23.33° C | 57% | 1016 hPa | 0 mm | - | - | - |
| 1777992606 | 23.33° C | 59% | 1015.9 hPa | 0 mm | - | - | - |
| 1777989006 | 23.89° C | 61% | 1015.9 hPa | 0 mm | - | - | - |
| 1777988405 | 22.78° C | 66% | 1015.9 hPa | 0 mm | - | - | - |
| 1777973405 | 10° C | 95% | 1014.3 hPa | 0 mm | - | - | - |
| 1777972806 | 10° C | 95% | 1014.3 hPa | 0 mm | - | - | - |
| 1777971605 | 10° C | 95% | 1014.1 hPa | 0 mm | - | - | - |
| 1777969205 | 10.56° C | 94% | 1014 hPa | 0 mm | - | - | - |
| 1777964405 | 11.11° C | 92% | 1013.8 hPa | 0 mm | - | - | - |
| 1777962006 | 11.67° C | 91% | 1014.2 hPa | 0 mm | - | - | - |
| 1777955405 | 13.33° C | 84% | 1014.9 hPa | 0 mm | - | - | - |
| 1777954206 | 13.33° C | 81% | 1014.7 hPa | 0 mm | - | - | - |
| 1777953005 | 13.89° C | 80% | 1014.8 hPa | 0 mm | - | - | - |
| 1777948206 | 16.11° C | 71% | 1014.8 hPa | 0 mm | - | - | - |
| 1777943405 | 17.78° C | 64% | 1014.4 hPa | 0 mm | - | - | - |
| 1777941605 | 19.44° C | 59% | 1014.2 hPa | 0 mm | - | - | - |
| 1777935005 | 23.89° C | 45% | 1013.4 hPa | 0 mm | - | - | - |
* Rain latest hour (hover to see other rain measurements)
** Current wind speed in m/s (hover to see current wind gust speed)